createdAt,value
2023-05-19T00:00:14.974Z,11.97
2023-05-19T00:02:45.742Z,11.99
2023-05-19T00:05:18.749Z,11.99
2023-05-19T00:07:52.158Z,12.01
2023-05-19T00:10:22.666Z,11.98
2023-05-19T00:12:53.932Z,11.98
2023-05-19T00:15:24.456Z,12.00
2023-05-19T00:17:55.711Z,11.93
2023-05-19T00:20:25.950Z,11.86
2023-05-19T00:22:56.339Z,11.88
2023-05-19T00:25:27.351Z,11.83
2023-05-19T00:27:59.388Z,11.89
2023-05-19T00:30:33.012Z,11.91
2023-05-19T00:33:03.321Z,11.89
2023-05-19T00:35:33.702Z,11.91
2023-05-19T00:38:03.831Z,11.89
2023-05-19T00:40:36.643Z,11.84
2023-05-19T00:43:08.776Z,11.81
2023-05-19T00:45:39.069Z,11.78
2023-05-19T00:48:09.446Z,11.76
2023-05-19T00:50:40.871Z,11.66
2023-05-19T00:53:11.813Z,11.66
2023-05-19T00:55:42.998Z,11.66
2023-05-19T00:58:14.836Z,11.63
2023-05-19T01:00:45.950Z,11.63
2023-05-19T01:03:20.830Z,11.60
2023-05-19T01:05:53.913Z,11.61
2023-05-19T01:08:24.393Z,11.57
2023-05-19T01:10:54.812Z,11.57
2023-05-19T01:13:25.490Z,11.58
2023-05-19T01:16:07.227Z,11.61
2023-05-19T01:18:45.109Z,11.56
2023-05-19T01:21:36.565Z,11.48
2023-05-19T01:24:47.699Z,11.57
2023-05-19T01:27:34.872Z,11.52
2023-05-19T01:30:23.975Z,11.58
2023-05-19T01:33:01.610Z,11.57
2023-05-19T01:35:33.668Z,11.54
2023-05-19T01:38:05.239Z,11.55
2023-05-19T01:40:36.524Z,11.56
2023-05-19T01:43:09.277Z,11.54
2023-05-19T01:45:40.748Z,11.52
2023-05-19T01:48:12.984Z,11.53
2023-05-19T01:50:44.260Z,11.55
2023-05-19T01:53:14.610Z,11.54
2023-05-19T01:55:50.381Z,11.56
2023-05-19T01:58:23.274Z,11.59
2023-05-19T02:00:56.876Z,11.61
2023-05-19T02:03:40.421Z,11.58
2023-05-19T02:06:29.187Z,11.62
2023-05-19T02:09:16.270Z,11.60
2023-05-19T02:12:03.976Z,11.62
2023-05-19T02:14:39.261Z,11.60
2023-05-19T02:17:12.767Z,11.60
2023-05-19T02:19:43.860Z,11.56
2023-05-19T02:22:14.001Z,11.53
2023-05-19T02:24:46.701Z,11.57
2023-05-19T02:27:16.894Z,11.59
2023-05-19T02:29:47.118Z,11.58
2023-05-19T02:32:17.996Z,11.58
2023-05-19T02:34:48.717Z,11.58
2023-05-19T02:37:19.016Z,11.59
2023-05-19T02:39:49.668Z,11.52
2023-05-19T02:42:19.874Z,11.58
2023-05-19T02:44:50.176Z,11.62
2023-05-19T02:47:20.496Z,11.64
2023-05-19T02:49:50.621Z,11.66
2023-05-19T02:52:20.794Z,11.67
2023-05-19T02:54:51.476Z,11.63
2023-05-19T02:57:22.058Z,11.67
2023-05-19T02:59:52.395Z,11.68
2023-05-19T03:02:22.584Z,11.67
2023-05-19T03:04:53.326Z,11.69
2023-05-19T03:07:25.542Z,11.67
2023-05-19T03:09:55.957Z,11.70
2023-05-19T03:12:26.236Z,11.72
2023-05-19T03:14:56.444Z,11.74
2023-05-19T03:17:26.831Z,11.77
2023-05-19T03:19:57.099Z,11.78
2023-05-19T03:22:27.318Z,11.86
2023-05-19T03:24:58.701Z,11.90
2023-05-19T03:27:29.385Z,11.93
2023-05-19T03:29:59.498Z,11.93
2023-05-19T03:32:29.727Z,11.91
2023-05-19T03:35:00.067Z,11.94
2023-05-19T03:37:30.277Z,11.97
2023-05-19T03:40:00.637Z,11.98
2023-05-19T03:42:30.983Z,12.01
2023-05-19T03:45:01.365Z,12.05
2023-05-19T03:47:31.953Z,12.07
2023-05-19T03:50:02.504Z,12.11
2023-05-19T03:52:32.602Z,12.12
2023-05-19T03:55:02.803Z,12.08
2023-05-19T03:57:33.841Z,12.22
2023-05-19T04:00:06.187Z,12.23
2023-05-19T04:02:36.406Z,12.28
2023-05-19T04:05:07.445Z,12.28
2023-05-19T04:07:38.088Z,12.33
2023-05-19T04:10:08.588Z,12.35
2023-05-19T04:12:38.785Z,12.40
2023-05-19T04:15:11.622Z,12.46
2023-05-19T04:17:42.170Z,12.50
2023-05-19T04:20:12.779Z,12.55
2023-05-19T04:22:43.005Z,12.55
2023-05-19T04:25:13.518Z,12.65
2023-05-19T04:27:43.719Z,12.64
2023-05-19T04:30:18.572Z,12.69
2023-05-19T04:32:52.278Z,12.70
2023-05-19T04:35:22.979Z,12.71
2023-05-19T04:37:56.990Z,12.75
2023-05-19T04:40:27.562Z,12.78
2023-05-19T04:42:58.247Z,12.82
2023-05-19T04:45:28.612Z,12.87
2023-05-19T04:47:59.532Z,12.91
2023-05-19T04:50:31.231Z,12.96
2023-05-19T04:53:01.667Z,12.96
2023-05-19T04:55:33.052Z,13.00
2023-05-19T04:58:03.193Z,13.08
2023-05-19T05:00:36.104Z,13.17
2023-05-19T05:03:07.410Z,13.22
2023-05-19T05:05:37.886Z,13.27
2023-05-19T05:08:08.145Z,13.31
2023-05-19T05:10:38.264Z,13.33
2023-05-19T05:13:10.580Z,13.29
2023-05-19T05:15:42.139Z,13.39
2023-05-19T05:18:12.792Z,13.44
2023-05-19T05:20:44.146Z,13.48
2023-05-19T05:23:14.853Z,13.51
2023-05-19T05:25:45.309Z,13.59
2023-05-19T05:28:15.851Z,13.62
2023-05-19T05:30:46.614Z,13.63
2023-05-19T05:33:18.427Z,13.64
2023-05-19T05:35:50.208Z,13.66
2023-05-19T05:38:20.392Z,13.68
2023-05-19T05:40:50.611Z,13.71
2023-05-19T05:43:20.875Z,13.59
2023-05-19T05:45:51.094Z,13.74
2023-05-19T05:48:21.646Z,13.79
2023-05-19T05:50:53.019Z,13.83
2023-05-19T05:53:25.790Z,13.86
2023-05-19T05:55:56.503Z,13.89
2023-05-19T05:58:26.630Z,13.93
2023-05-19T06:00:58.047Z,14.01
2023-05-19T06:03:28.322Z,14.06
2023-05-19T06:05:58.641Z,14.03
2023-05-19T06:08:28.831Z,14.10
2023-05-19T06:10:59.183Z,14.12
2023-05-19T06:13:29.460Z,14.20
2023-05-19T06:16:01.857Z,14.26
2023-05-19T06:18:32.710Z,14.31
2023-05-19T06:21:03.632Z,14.41
2023-05-19T06:23:33.816Z,14.43
2023-05-19T06:26:04.018Z,14.44
2023-05-19T06:28:34.308Z,14.46
2023-05-19T06:31:04.666Z,14.51
2023-05-19T06:33:35.044Z,14.49
2023-05-19T06:36:05.731Z,14.52
2023-05-19T06:38:35.961Z,14.54
2023-05-19T06:41:06.285Z,14.63
2023-05-19T06:43:36.550Z,14.68
2023-05-19T06:46:07.780Z,14.71
2023-05-19T06:48:37.993Z,14.82
2023-05-19T06:51:10.329Z,14.87
2023-05-19T06:53:40.651Z,14.88
2023-05-19T06:56:13.454Z,14.91
2023-05-19T06:58:43.877Z,14.90
2023-05-19T07:01:14.208Z,14.91
2023-05-19T07:03:44.514Z,14.97
2023-05-19T07:06:14.921Z,15.03
2023-05-19T07:08:45.116Z,15.16
2023-05-19T07:11:16.851Z,15.20
2023-05-19T07:13:46.998Z,15.23
2023-05-19T07:16:17.267Z,15.28
2023-05-19T07:18:47.699Z,15.40
2023-05-19T07:21:17.893Z,15.42
2023-05-19T07:23:48.332Z,15.50
2023-05-19T07:26:18.565Z,15.56
2023-05-19T07:28:48.766Z,15.63
2023-05-19T07:31:19.706Z,15.64
2023-05-19T07:33:51.578Z,15.66
2023-05-19T07:36:23.559Z,15.67
2023-05-19T07:38:53.768Z,15.73
2023-05-19T07:41:24.153Z,15.72
2023-05-19T07:43:57.243Z,15.75
2023-05-19T07:46:27.542Z,15.77
2023-05-19T07:48:57.771Z,15.83
2023-05-19T07:51:28.041Z,15.91
2023-05-19T07:53:58.470Z,16.03
2023-05-19T07:56:29.831Z,16.07
2023-05-19T07:59:00.012Z,16.16
2023-05-19T08:01:31.299Z,16.26
2023-05-19T08:04:01.637Z,16.41
2023-05-19T08:06:31.998Z,16.45
2023-05-19T08:09:02.158Z,16.53
2023-05-19T08:11:32.413Z,16.55
2023-05-19T08:14:03.010Z,16.64
2023-05-19T08:16:33.217Z,16.77
2023-05-19T08:19:05.682Z,16.79
2023-05-19T08:21:36.694Z,16.81
2023-05-19T08:24:06.961Z,16.93
2023-05-19T08:26:37.906Z,17.05
2023-05-19T08:29:08.315Z,17.11
2023-05-19T08:31:38.476Z,17.33
2023-05-19T08:34:09.737Z,17.41
2023-05-19T08:36:40.988Z,17.52
2023-05-19T08:39:12.104Z,17.65
2023-05-19T08:41:42.308Z,17.73
2023-05-19T08:44:12.452Z,17.82
2023-05-19T08:46:42.932Z,17.88
2023-05-19T08:49:15.879Z,17.90
2023-05-19T08:52:12.055Z,18.00
2023-05-19T08:54:51.052Z,17.99
2023-05-19T08:57:23.725Z,18.02
2023-05-19T08:59:56.148Z,18.01
2023-05-19T09:02:26.813Z,17.98
2023-05-19T09:04:57.811Z,17.91
2023-05-19T09:07:30.216Z,17.90
2023-05-19T09:10:01.468Z,17.85
2023-05-19T09:12:31.768Z,17.77
2023-05-19T09:15:02.895Z,17.73
2023-05-19T09:17:34.131Z,17.72
2023-05-19T09:20:11.360Z,17.72
2023-05-19T09:22:47.558Z,17.77
2023-05-19T09:25:18.280Z,17.82
2023-05-19T09:27:49.836Z,17.73
2023-05-19T09:30:20.579Z,17.72
2023-05-19T09:32:52.340Z,17.40
2023-05-19T09:35:22.527Z,17.76
2023-05-19T09:37:53.250Z,17.76
2023-05-19T09:40:28.340Z,17.82
2023-05-19T09:42:58.532Z,17.75
2023-05-19T09:45:28.733Z,17.85
2023-05-19T09:48:04.762Z,17.83
2023-05-19T09:50:35.937Z,17.89
2023-05-19T09:53:06.556Z,17.90
2023-05-19T09:55:37.310Z,17.94
2023-05-19T09:58:07.604Z,17.96
2023-05-19T10:00:38.999Z,17.99
2023-05-19T10:03:09.857Z,17.99
2023-05-19T10:05:41.874Z,17.99
2023-05-19T10:08:12.782Z,18.03
2023-05-19T10:10:43.134Z,18.06
2023-05-19T10:13:13.812Z,18.06
2023-05-19T10:15:57.407Z,18.11
2023-05-19T10:18:29.972Z,18.16
2023-05-19T10:21:00.955Z,18.17
2023-05-19T10:23:31.119Z,18.15
2023-05-19T10:26:05.295Z,18.17
2023-05-19T10:28:38.649Z,18.16
2023-05-19T10:31:13.936Z,18.04
2023-05-19T10:34:08.923Z,18.12
2023-05-19T10:36:47.871Z,18.14
2023-05-19T10:39:25.735Z,18.10
2023-05-19T10:41:58.520Z,18.03
2023-05-19T10:45:03.591Z,17.94
2023-05-19T10:47:35.191Z,17.87
2023-05-19T10:50:06.932Z,17.84
2023-05-19T10:52:38.630Z,17.81
2023-05-19T10:55:15.768Z,17.74
2023-05-19T10:57:57.061Z,17.73
2023-05-19T11:00:29.057Z,17.63
2023-05-19T11:03:16.044Z,17.31
2023-05-19T11:05:46.663Z,17.55
2023-05-19T11:08:18.185Z,17.51
2023-05-19T11:10:52.371Z,17.50
2023-05-19T11:13:23.272Z,17.45
2023-05-19T11:15:53.759Z,17.43
2023-05-19T11:18:24.817Z,17.37
2023-05-19T11:21:02.575Z,17.35
2023-05-19T11:23:40.028Z,17.34
2023-05-19T11:26:10.278Z,17.30
2023-05-19T11:28:41.353Z,17.26
2023-05-19T11:31:12.084Z,17.22
2023-05-19T11:33:42.432Z,17.12
2023-05-19T11:36:13.172Z,17.17
2023-05-19T11:38:45.392Z,17.10
2023-05-19T11:41:18.185Z,17.05
2023-05-19T11:43:50.059Z,16.90
2023-05-19T11:46:20.447Z,16.88
2023-05-19T11:48:51.336Z,16.83
2023-05-19T11:51:22.606Z,16.85
2023-05-19T11:53:55.191Z,16.87
2023-05-19T11:56:25.347Z,16.88
2023-05-19T11:58:55.706Z,16.86
2023-05-19T12:01:28.752Z,16.92
2023-05-19T12:03:59.057Z,16.90
2023-05-19T12:06:30.051Z,16.89
2023-05-19T12:09:01.240Z,16.91
2023-05-19T12:11:32.062Z,16.96
2023-05-19T12:14:02.515Z,17.02
2023-05-19T12:16:36.003Z,17.00
2023-05-19T12:19:07.947Z,16.98
2023-05-19T12:21:38.269Z,16.97
2023-05-19T12:24:09.389Z,16.95
2023-05-19T12:26:40.716Z,16.87
2023-05-19T12:29:13.190Z,16.92
2023-05-19T12:31:47.356Z,16.87
2023-05-19T12:34:17.719Z,16.89
2023-05-19T12:36:48.003Z,16.85
2023-05-19T12:39:19.511Z,16.83
2023-05-19T12:41:50.991Z,16.79
2023-05-19T12:44:21.138Z,16.70
2023-05-19T12:46:52.510Z,16.63
2023-05-19T12:49:22.755Z,16.60
2023-05-19T12:51:54.385Z,16.59
2023-05-19T12:54:24.703Z,16.53
2023-05-19T12:56:59.466Z,16.54
2023-05-19T12:59:38.921Z,16.49
2023-05-19T13:02:09.712Z,16.40
2023-05-19T13:04:39.960Z,16.36
2023-05-19T13:07:10.542Z,16.33
2023-05-19T13:09:40.708Z,16.33
2023-05-19T13:12:10.886Z,16.29
2023-05-19T13:14:42.599Z,16.29
2023-05-19T13:17:12.804Z,16.27
2023-05-19T13:19:43.102Z,16.23
2023-05-19T13:22:13.387Z,16.15
2023-05-19T13:24:43.542Z,16.13
2023-05-19T13:27:13.956Z,16.06
2023-05-19T13:29:44.341Z,15.96
2023-05-19T13:32:14.499Z,15.86
2023-05-19T13:34:44.729Z,15.76
2023-05-19T13:37:15.364Z,15.62
2023-05-19T13:39:46.066Z,15.58
2023-05-19T13:42:17.777Z,15.56
2023-05-19T13:44:48.363Z,15.54
2023-05-19T13:47:18.663Z,15.48
2023-05-19T13:49:48.950Z,15.48
2023-05-19T13:52:20.858Z,15.48
2023-05-19T13:54:51.178Z,15.45
2023-05-19T13:57:22.681Z,15.39
2023-05-19T14:00:01.822Z,15.41
2023-05-19T14:02:34.240Z,15.35
2023-05-19T14:05:05.321Z,15.31
2023-05-19T14:07:36.717Z,15.28
2023-05-19T14:10:07.513Z,15.27
2023-05-19T14:12:54.911Z,15.26
2023-05-19T14:15:27.903Z,15.25
2023-05-19T14:17:59.256Z,15.24
2023-05-19T14:20:30.135Z,15.22
2023-05-19T14:23:00.301Z,15.16
2023-05-19T14:25:30.771Z,15.13
2023-05-19T14:28:01.881Z,15.14
2023-05-19T14:30:32.353Z,15.18
2023-05-19T14:33:02.870Z,15.19
2023-05-19T14:35:33.108Z,15.17
2023-05-19T14:38:03.308Z,15.18
2023-05-19T14:40:34.004Z,15.15
2023-05-19T14:43:04.529Z,15.19
2023-05-19T14:45:35.857Z,15.16
2023-05-19T14:48:06.085Z,15.14
2023-05-19T14:50:36.377Z,15.16
2023-05-19T14:53:06.550Z,15.08
2023-05-19T14:55:37.119Z,15.16
2023-05-19T14:58:15.799Z,15.08
2023-05-19T15:00:50.218Z,15.09
2023-05-19T15:03:20.370Z,15.06
2023-05-19T15:05:50.807Z,15.09
2023-05-19T15:08:21.682Z,15.08
2023-05-19T15:10:51.966Z,15.10
2023-05-19T15:13:22.219Z,15.12
2023-05-19T15:16:08.217Z,15.10
2023-05-19T15:18:45.853Z,15.09
2023-05-19T15:21:16.131Z,15.14
2023-05-19T15:23:46.366Z,15.17
2023-05-19T15:26:16.978Z,15.17
2023-05-19T15:28:47.224Z,15.12
2023-05-19T15:31:18.059Z,15.05
2023-05-19T15:33:48.258Z,14.97
2023-05-19T15:36:18.873Z,14.96
2023-05-19T15:38:49.081Z,14.91
2023-05-19T15:41:19.297Z,14.98
2023-05-19T15:43:49.510Z,14.96
2023-05-19T15:46:19.934Z,14.99
2023-05-19T15:48:50.165Z,14.95
2023-05-19T15:51:20.333Z,14.99
2023-05-19T15:53:50.548Z,15.00
2023-05-19T15:56:21.771Z,14.98
2023-05-19T15:58:52.058Z,14.97
2023-05-19T16:01:22.552Z,14.96
2023-05-19T16:03:52.913Z,14.94
2023-05-19T16:06:24.769Z,14.92
2023-05-19T16:08:55.104Z,14.93
2023-05-19T16:11:25.323Z,14.93
2023-05-19T16:13:55.959Z,14.69
2023-05-19T16:16:26.242Z,14.64
2023-05-19T16:18:56.495Z,14.51
2023-05-19T16:21:26.833Z,14.46
2023-05-19T16:23:57.138Z,14.40
2023-05-19T16:26:29.122Z,14.40
2023-05-19T16:28:59.384Z,14.38
2023-05-19T16:31:30.172Z,14.36
2023-05-19T16:34:00.315Z,14.34
2023-05-19T16:36:30.462Z,14.37
2023-05-19T16:39:00.853Z,14.30
2023-05-19T16:41:30.937Z,14.32
2023-05-19T16:44:02.548Z,14.32
2023-05-19T16:46:32.984Z,14.40
2023-05-19T16:49:03.612Z,14.38
2023-05-19T16:51:33.768Z,14.36
2023-05-19T16:54:04.267Z,14.41
2023-05-19T16:56:34.598Z,14.37
2023-05-19T16:59:04.810Z,14.36
2023-05-19T17:01:35.130Z,14.36
2023-05-19T17:04:05.545Z,14.33
2023-05-19T17:06:36.037Z,14.28
2023-05-19T17:09:06.381Z,14.23
2023-05-19T17:11:36.616Z,14.24
2023-05-19T17:14:09.773Z,14.22
2023-05-19T17:16:39.981Z,14.21
2023-05-19T17:19:11.248Z,14.10
2023-05-19T17:21:41.744Z,14.16
2023-05-19T17:24:12.028Z,14.13
2023-05-19T17:26:42.229Z,14.08
2023-05-19T17:29:12.394Z,14.05
2023-05-19T17:31:42.943Z,14.03
2023-05-19T17:34:13.246Z,14.01
2023-05-19T17:36:43.556Z,14.01
2023-05-19T17:39:13.780Z,14.00
2023-05-19T17:41:44.132Z,13.97
2023-05-19T17:44:15.097Z,13.96
2023-05-19T17:46:45.359Z,13.86
2023-05-19T17:49:15.620Z,13.92
2023-05-19T17:51:47.510Z,13.81
2023-05-19T17:54:17.985Z,13.84
2023-05-19T17:56:49.919Z,13.85
2023-05-19T17:59:20.335Z,13.81
2023-05-19T18:01:50.971Z,13.81
2023-05-19T18:04:21.667Z,13.81
2023-05-19T18:06:52.978Z,13.78
2023-05-19T18:09:28.523Z,13.72
2023-05-19T18:12:02.538Z,13.71
2023-05-19T18:14:32.878Z,13.64
2023-05-19T18:17:03.256Z,13.63
2023-05-19T18:19:33.414Z,13.64
2023-05-19T18:22:03.812Z,13.59
2023-05-19T18:24:34.035Z,13.59
2023-05-19T18:27:04.293Z,13.58
2023-05-19T18:29:35.031Z,13.55
2023-05-19T18:32:05.596Z,13.55
2023-05-19T18:34:35.843Z,13.48
2023-05-19T18:37:06.090Z,13.47
2023-05-19T18:39:37.281Z,13.46
2023-05-19T18:42:07.458Z,13.43
2023-05-19T18:44:37.665Z,13.40
2023-05-19T18:47:08.053Z,13.41
2023-05-19T18:49:38.315Z,13.38
2023-05-19T18:52:08.719Z,13.34
2023-05-19T18:54:39.141Z,13.31
2023-05-19T18:57:09.594Z,13.31
2023-05-19T18:59:39.938Z,13.26
2023-05-19T19:02:10.213Z,13.26
2023-05-19T19:04:40.382Z,13.23
2023-05-19T19:07:10.591Z,13.22
2023-05-19T19:09:44.023Z,13.19
2023-05-19T19:12:14.244Z,13.14
2023-05-19T19:14:44.420Z,13.12
2023-05-19T19:17:14.727Z,13.13
2023-05-19T19:19:45.017Z,13.11
2023-05-19T19:22:15.258Z,13.04
2023-05-19T19:24:45.674Z,13.02
2023-05-19T19:27:17.824Z,12.94
2023-05-19T19:29:48.102Z,12.98
2023-05-19T19:32:18.267Z,12.94
2023-05-19T19:34:48.409Z,12.92
2023-05-19T19:37:21.353Z,12.93
2023-05-19T19:39:51.576Z,12.90
2023-05-19T19:42:22.245Z,12.81
2023-05-19T19:44:56.016Z,12.83
2023-05-19T19:47:27.367Z,12.84
2023-05-19T19:49:57.582Z,12.82
2023-05-19T19:52:27.873Z,12.78
2023-05-19T19:54:58.143Z,12.81
2023-05-19T19:57:29.621Z,12.79
2023-05-19T20:00:07.791Z,12.77
2023-05-19T20:02:45.479Z,12.76
2023-05-19T20:05:26.092Z,12.71
2023-05-19T20:07:56.268Z,12.78
2023-05-19T20:10:26.572Z,12.70
2023-05-19T20:12:58.931Z,12.78
2023-05-19T20:15:31.863Z,12.71
2023-05-19T20:18:02.040Z,12.72
2023-05-19T20:21:02.442Z,12.71
2023-05-19T20:23:32.641Z,12.67
2023-05-19T20:26:13.377Z,12.67
2023-05-19T20:28:43.922Z,12.68
2023-05-19T20:31:33.380Z,12.69
2023-05-19T20:34:03.894Z,12.71
2023-05-19T20:36:34.301Z,12.66
2023-05-19T20:39:04.610Z,12.63
2023-05-19T20:41:34.873Z,12.63
2023-05-19T20:44:05.282Z,12.62
2023-05-19T20:46:35.559Z,12.61
2023-05-19T20:49:05.920Z,12.62
2023-05-19T20:51:36.210Z,12.63
2023-05-19T20:54:07.476Z,12.60
2023-05-19T20:56:38.800Z,12.69
2023-05-19T20:59:09.022Z,12.68
2023-05-19T21:01:39.450Z,12.69
2023-05-19T21:04:09.760Z,12.52
2023-05-19T21:06:40.047Z,12.56
2023-05-19T21:09:10.917Z,12.60
2023-05-19T21:11:48.126Z,12.60
2023-05-19T21:14:22.346Z,12.62
2023-05-19T21:16:54.453Z,12.66
2023-05-19T21:19:29.644Z,12.66
2023-05-19T21:21:59.890Z,12.67
2023-05-19T21:24:31.213Z,12.65
2023-05-19T21:27:01.405Z,12.67
2023-05-19T21:29:31.843Z,12.67
2023-05-19T21:32:02.144Z,12.70
2023-05-19T21:34:32.276Z,12.72
2023-05-19T21:37:02.485Z,12.72
2023-05-19T21:39:32.737Z,12.71
2023-05-19T21:42:03.694Z,12.69
2023-05-19T21:44:33.995Z,12.68
2023-05-19T21:47:04.319Z,12.68
2023-05-19T21:49:34.512Z,12.63
2023-05-19T21:52:04.975Z,12.71
2023-05-19T21:54:35.425Z,12.71
2023-05-19T21:57:05.931Z,12.67
2023-05-19T21:59:36.172Z,12.61
2023-05-19T22:02:06.749Z,12.60
2023-05-19T22:04:37.300Z,12.60
2023-05-19T22:07:07.622Z,12.49
2023-05-19T22:09:38.272Z,12.57
2023-05-19T22:12:08.691Z,12.52
2023-05-19T22:14:38.972Z,12.49
2023-05-19T22:17:09.123Z,12.41
2023-05-19T22:19:39.304Z,12.38
2023-05-19T22:22:14.137Z,12.39
2023-05-19T22:24:44.943Z,12.37
2023-05-19T22:27:15.123Z,12.32
2023-05-19T22:29:45.326Z,12.31
2023-05-19T22:32:18.248Z,12.28
2023-05-19T22:34:48.571Z,12.25
2023-05-19T22:37:19.123Z,12.24
2023-05-19T22:39:49.294Z,12.21
2023-05-19T22:42:19.439Z,12.16
2023-05-19T22:44:49.554Z,12.18
2023-05-19T22:47:19.723Z,12.20
2023-05-19T22:49:51.340Z,12.28
2023-05-19T22:52:21.748Z,12.31
2023-05-19T22:54:52.088Z,12.29
2023-05-19T22:57:22.343Z,12.31
2023-05-19T22:59:52.507Z,12.35
2023-05-19T23:02:22.741Z,12.37
2023-05-19T23:04:52.963Z,12.37
2023-05-19T23:07:23.147Z,12.42
2023-05-19T23:09:53.288Z,12.43
2023-05-19T23:12:23.508Z,12.46
2023-05-19T23:14:53.716Z,12.46
2023-05-19T23:17:24.055Z,12.46
2023-05-19T23:19:54.253Z,12.46
2023-05-19T23:22:24.480Z,12.49
2023-05-19T23:24:54.698Z,12.50
2023-05-19T23:27:24.887Z,12.48
2023-05-19T23:29:55.062Z,12.49
2023-05-19T23:32:25.265Z,12.48
2023-05-19T23:34:55.462Z,12.44
2023-05-19T23:37:25.669Z,12.42
2023-05-19T23:39:56.025Z,12.39
2023-05-19T23:42:26.235Z,12.38
2023-05-19T23:44:56.419Z,12.39
2023-05-19T23:47:27.011Z,12.42
2023-05-19T23:49:57.231Z,12.44
2023-05-19T23:52:27.479Z,12.45
2023-05-19T23:54:57.659Z,12.46
2023-05-19T23:57:27.824Z,12.44
2023-05-19T23:59:58.099Z,12.40
